createdAt,value
2019-04-23T00:04:11.704Z,3.40
2019-04-23T00:09:35.675Z,3.00
2019-04-23T00:14:27.232Z,3.10
2019-04-23T00:19:24.677Z,3.33
2019-04-23T00:25:41.608Z,3.13
2019-04-23T00:30:12.954Z,3.20
2019-04-23T00:35:12.566Z,3.40
2019-04-23T00:40:25.907Z,3.20
2019-04-23T00:45:34.665Z,3.30
2019-04-23T00:50:44.929Z,2.90
2019-04-23T00:55:53.615Z,3.00
2019-04-23T01:05:53.914Z,3.43
2019-04-23T01:11:01.928Z,3.07
2019-04-23T01:20:55.932Z,2.83
2019-04-23T01:26:16.551Z,3.33
2019-04-23T01:31:27.147Z,2.93
2019-04-23T01:36:34.713Z,3.23
2019-04-23T01:41:45.220Z,3.20
2019-04-23T01:46:43.891Z,3.27
2019-04-23T01:51:46.717Z,3.20
2019-04-23T01:56:47.392Z,3.03
2019-04-23T02:01:50.287Z,3.20
2019-04-23T02:06:57.993Z,3.03
2019-04-23T02:12:07.495Z,3.00
2019-04-23T02:17:10.506Z,3.10
2019-04-23T02:22:31.445Z,3.20
2019-04-23T02:27:37.906Z,3.00
2019-04-23T02:32:52.624Z,3.00
2019-04-23T02:37:53.766Z,2.90
2019-04-23T02:43:00.972Z,3.03
2019-04-23T02:48:05.691Z,3.20
2019-04-23T02:53:02.555Z,3.53
2019-04-23T02:58:00.668Z,3.20
2019-04-23T03:08:10.199Z,3.27
2019-04-23T03:44:08.083Z,3.67
2019-04-23T03:48:53.128Z,3.93
2019-04-23T04:04:25.162Z,3.60
2019-04-23T04:24:36.830Z,4.30
2019-04-23T04:29:44.986Z,4.30
2019-04-23T04:39:53.101Z,4.40
2019-04-23T04:49:58.350Z,4.77
2019-04-23T04:54:49.801Z,4.90
2019-04-23T05:20:16.447Z,5.27
2019-04-23T05:25:15.447Z,4.63
2019-04-23T05:35:46.621Z,4.80
2019-04-23T05:45:39.916Z,4.97
2019-04-23T05:51:00.852Z,5.03
2019-04-23T05:55:58.734Z,5.23
2019-04-23T06:01:19.924Z,5.70
2019-04-23T06:06:20.846Z,6.57
2019-04-23T06:11:28.161Z,5.33
2019-04-23T06:16:31.539Z,5.17
2019-04-23T06:21:34.518Z,5.60
2019-04-23T06:26:39.814Z,5.57
2019-04-23T06:31:47.463Z,5.47
2019-04-23T06:36:46.550Z,5.70
2019-04-23T06:41:49.929Z,6.10
2019-04-23T06:46:56.778Z,6.17
2019-04-23T06:57:10.230Z,5.80
2019-04-23T07:02:26.157Z,6.70
2019-04-23T07:46:45.842Z,7.93
2019-04-23T07:51:51.428Z,7.33
2019-04-23T07:57:02.882Z,7.57
2019-04-23T08:01:59.731Z,7.90
2019-04-23T08:07:06.651Z,8.50
2019-04-23T08:12:23.858Z,8.03
2019-04-23T08:17:17.294Z,7.47
2019-04-23T08:27:29.686Z,8.50
2019-04-23T08:32:21.460Z,8.27
2019-04-23T08:37:58.762Z,9.10
2019-04-23T08:48:11.052Z,8.70
2019-04-23T08:53:17.822Z,8.90
2019-04-23T08:58:09.691Z,9.80
2019-04-23T09:03:26.831Z,9.60
2019-04-23T09:08:28.100Z,9.27
2019-04-23T09:13:49.892Z,9.70
2019-04-23T09:18:32.167Z,8.93
2019-04-23T09:23:45.114Z,9.20
2019-04-23T09:28:57.978Z,9.30
2019-04-23T09:34:03.478Z,10.97
2019-04-23T09:39:20.608Z,9.17
2019-04-23T09:54:51.058Z,10.97
2019-04-23T09:59:49.588Z,9.27
2019-04-23T10:04:42.038Z,9.53
2019-04-23T10:09:27.671Z,8.93
2019-04-23T10:14:30.424Z,8.80
2019-04-23T10:19:32.911Z,9.37
2019-04-23T10:24:35.181Z,10.17
2019-04-23T10:29:41.846Z,9.43
2019-04-23T10:34:55.273Z,9.47
2019-04-23T10:39:54.881Z,8.80
2019-04-23T10:45:21.007Z,9.77
2019-04-23T10:50:51.255Z,8.83
2019-04-23T10:56:00.688Z,8.87
2019-04-23T11:01:00.295Z,9.13
2019-04-23T11:06:06.746Z,10.03
2019-04-23T11:11:16.679Z,9.00
2019-04-23T11:21:23.803Z,9.63
2019-04-23T11:26:29.887Z,9.10
2019-04-23T11:31:41.108Z,9.30
2019-04-23T11:36:49.855Z,9.70
2019-04-23T11:41:45.773Z,9.47
2019-04-23T11:51:57.902Z,9.47
2019-04-23T11:57:14.337Z,9.50
2019-04-23T12:02:00.732Z,10.03
2019-04-23T12:12:57.821Z,9.20
2019-04-23T12:17:51.161Z,10.70
2019-04-23T12:23:04.682Z,9.90
2019-04-23T12:27:51.736Z,9.90
2019-04-23T12:33:04.711Z,10.20
2019-04-23T12:43:15.583Z,10.20
2019-04-23T12:53:30.626Z,10.50
2019-04-23T12:58:26.762Z,10.43
2019-04-23T13:03:33.042Z,9.07
2019-04-23T13:08:46.190Z,9.10
2019-04-23T13:13:56.374Z,9.10
2019-04-23T13:18:49.881Z,9.07
2019-04-23T13:24:04.210Z,9.33
2019-04-23T13:29:18.450Z,8.80
2019-04-23T13:34:23.093Z,9.17
2019-04-23T13:44:25.910Z,8.90
2019-04-23T13:49:35.022Z,9.53
2019-04-23T13:54:58.485Z,9.17
2019-04-23T13:59:45.020Z,9.23
2019-04-23T14:05:06.361Z,8.73
2019-04-23T14:10:04.505Z,8.10
2019-04-23T14:20:13.798Z,9.67
2019-04-23T14:25:10.160Z,9.03
2019-04-23T14:30:38.844Z,8.83
2019-04-23T14:35:25.740Z,9.23
2019-04-23T14:40:35.531Z,8.70
2019-04-23T14:46:25.128Z,9.27
2019-04-23T14:51:11.287Z,9.13
2019-04-23T15:27:21.213Z,8.03
2019-04-23T15:27:26.113Z,8.40
2019-04-23T15:31:42.442Z,8.83
2019-04-23T15:41:53.092Z,8.90
2019-04-23T15:46:47.197Z,8.10
2019-04-23T15:51:56.625Z,7.97
2019-04-23T16:01:43.163Z,8.13
2019-04-23T16:06:41.533Z,7.67
2019-04-23T16:12:03.151Z,8.37
2019-04-23T16:17:25.667Z,7.53
2019-04-23T16:22:18.754Z,8.03
2019-04-23T16:27:21.587Z,7.07
2019-04-23T16:33:02.484Z,7.37
2019-04-23T16:38:19.624Z,8.47
2019-04-23T16:43:08.675Z,8.00
2019-04-23T16:58:33.566Z,7.60
2019-04-23T17:13:51.955Z,7.43
2019-04-23T17:23:59.581Z,8.00
2019-04-23T17:28:59.525Z,8.57
2019-04-23T17:34:11.725Z,8.00
2019-04-23T17:49:55.626Z,8.20
2019-04-23T18:00:08.383Z,8.43
2019-04-23T18:05:02.621Z,8.07
2019-04-23T18:10:24.820Z,8.10
2019-04-23T18:25:32.322Z,8.53
2019-04-23T18:35:50.961Z,8.33
2019-04-23T18:41:05.387Z,8.70
2019-04-23T18:51:12.450Z,9.50
2019-04-23T18:56:15.361Z,9.47
2019-04-23T19:01:27.934Z,9.23
2019-04-23T19:06:41.265Z,9.60
2019-04-23T19:12:26.131Z,9.60
2019-04-23T19:32:41.752Z,10.23
2019-04-23T19:37:49.394Z,10.10
2019-04-23T19:42:48.952Z,10.43
2019-04-23T19:48:11.189Z,10.37
2019-04-23T20:08:13.302Z,11.30
2019-04-23T20:13:08.113Z,10.27
2019-04-23T20:18:05.845Z,11.53
2019-04-23T20:28:53.071Z,10.47
2019-04-23T20:31:36.472Z,11.40
2019-04-23T20:33:55.493Z,12.13
2019-04-23T20:38:53.228Z,12.03
2019-04-23T20:43:55.832Z,12.80
2019-04-23T20:48:53.691Z,13.23
2019-04-23T20:54:02.257Z,13.20
2019-04-23T21:04:09.300Z,13.60
2019-04-23T21:14:31.829Z,13.77
2019-04-23T21:19:30.762Z,14.30
2019-04-23T21:24:31.002Z,13.53
2019-04-23T21:29:37.409Z,13.97
2019-04-23T21:34:35.383Z,13.83
2019-04-23T21:40:35.914Z,14.47
2019-04-23T21:45:13.613Z,13.93
2019-04-23T21:50:25.233Z,13.60
2019-04-23T21:55:20.786Z,14.63
2019-04-23T22:00:39.363Z,14.43
2019-04-23T22:10:46.659Z,14.90
2019-04-23T22:15:54.693Z,15.87
2019-04-23T22:20:59.365Z,15.10
2019-04-23T22:26:06.796Z,14.40
2019-04-23T22:31:06.803Z,15.60
2019-04-23T22:36:16.002Z,15.57
2019-04-23T22:41:08.816Z,15.80
2019-04-23T22:46:16.232Z,16.33
2019-04-23T22:51:20.733Z,15.33
2019-04-23T22:56:25.936Z,16.20
2019-04-23T23:01:52.056Z,16.23
2019-04-23T23:06:43.508Z,16.50
2019-04-23T23:11:34.487Z,16.50
2019-04-23T23:22:01.973Z,16.33
2019-04-23T23:26:54.173Z,16.90
2019-04-23T23:32:02.043Z,17.30
2019-04-23T23:37:05.443Z,16.50
2019-04-23T23:42:02.561Z,17.17
2019-04-23T23:52:13.083Z,18.03
2019-04-23T23:57:16.257Z,17.97
